This is the latest recevied weather packets stored in our database for station/object KJ4RDP-13. If no packets are shown the sender has not sent any weather packets the latest 10 day(s).
| Time | Temp. | Humidity | Pressure | Rain* | Wind** | Luminosity | Snow |
|---|---|---|---|---|---|---|---|
| 1777950680 | 10° C | 88% | 1015.7 hPa | 0 mm | - | 0 W/m² | - |
| 1777950377 | 10° C | 87% | 1015.7 hPa | 0 mm | - | 0 W/m² | - |
| 1777950073 | 10° C | 88% | 1015.7 hPa | 0 mm | - | 0 W/m² | - |
| 1777949769 | 10.56° C | 87% | 1015.7 hPa | 0 mm | - | 0 W/m² | - |
| 1777949468 | 10.56° C | 86% | 1015.7 hPa | 0 mm | - | 0 W/m² | - |
| 1777949165 | 11.11° C | 84% | 1015.7 hPa | 0 mm | - | 0 W/m² | - |
| 1777948862 | 11.67° C | 83% | 1015.7 hPa | 0 mm | - | 0 W/m² | - |
| 1777948559 | 11.67° C | 81% | 1015.7 hPa | 0 mm | - | 0 W/m² | - |
| 1777948257 | 12.22° C | 80% | 1015.7 hPa | 0 mm | - | 0 W/m² | - |
| 1777947954 | 12.22° C | 79% | 1015.7 hPa | 0 mm | - | 0 W/m² | - |
| 1777947651 | 12.78° C | 77% | 1015.2 hPa | 0 mm | - | 0 W/m² | - |
| 1777947348 | 12.78° C | 77% | 1015.2 hPa | 0 mm | - | 0 W/m² | - |
| 1777947045 | 12.78° C | 77% | 1015.7 hPa | 0 mm | - | 0 W/m² | - |
| 1777946744 | 13.33° C | 77% | 1015.2 hPa | 0 mm | - | 0 W/m² | - |
| 1777946442 | 13.89° C | 73% | 1014.9 hPa | 0 mm | - | 0 W/m² | - |
| 1777946139 | 13.33° C | 74% | 1015.2 hPa | 0 mm | - | 0 W/m² | - |
| 1777945835 | 14.44° C | 73% | 1015.2 hPa | 0 mm | - | 0 W/m² | - |
| 1777945532 | 14.44° C | 69% | 1015.2 hPa | 0 mm | - | 0 W/m² | - |
| 1777945229 | 14.44° C | 68% | 1014.9 hPa | 0 mm | - | 0 W/m² | - |
| 1777944926 | 15° C | 68% | 1014.9 hPa | 0 mm | - | 0 W/m² | - |
| 1777944624 | 15° C | 67% | 1014.9 hPa | 0 mm | - | 0 W/m² | - |
| 1777944322 | 15° C | 68% | 1014.6 hPa | 0 mm | - | 0 W/m² | - |
| 1777944019 | 15° C | 70% | 1014.6 hPa | 0 mm | - | 0 W/m² | - |
| 1777943714 | 15.56° C | 62% | 1014.6 hPa | 0 mm | - | 0 W/m² | - |
| 1777943411 | 14.44° C | 67% | 1014.6 hPa | 0 mm | - | 0 W/m² | - |
* Rain latest hour (hover to see other rain measurements)
** Current wind speed in m/s (hover to see current wind gust speed)